createdAt,value
2023-04-02T00:01:08.013Z,96764.28
2023-04-02T00:06:31.317Z,96751.63
2023-04-02T00:11:38.307Z,96712.38
2023-04-02T00:16:40.969Z,96765.34
2023-04-02T00:21:46.880Z,96760.53
2023-04-02T00:26:52.979Z,96763.56
2023-04-02T00:32:14.738Z,96770.84
2023-04-02T00:37:24.820Z,96551.81
2023-04-02T00:42:33.283Z,96620.81
2023-04-02T00:47:39.827Z,96395.38
2023-04-02T00:52:46.209Z,96738.53
2023-04-02T00:57:50.812Z,96774.16
2023-04-02T01:03:31.275Z,96740.06
2023-04-02T01:09:03.301Z,96776.34
2023-04-02T01:14:17.971Z,96775.03
2023-04-02T01:19:48.279Z,96768.00
2023-04-02T01:24:51.464Z,96665.66
2023-04-02T01:29:57.602Z,96720.84
2023-04-02T01:35:02.218Z,96772.50
2023-04-02T01:40:31.259Z,96761.25
2023-04-02T01:45:43.808Z,96677.34
2023-04-02T01:50:58.956Z,96668.16
2023-04-02T01:56:03.040Z,96559.34
2023-04-02T02:01:10.510Z,96770.06
2023-04-02T02:06:18.593Z,96773.78
2023-04-02T02:11:25.157Z,96733.16
2023-04-02T02:16:31.096Z,96770.13
2023-04-02T02:21:45.290Z,96773.53
2023-04-02T02:26:52.913Z,96731.28
2023-04-02T02:32:08.725Z,96643.75
2023-04-02T02:37:24.911Z,96765.34
2023-04-02T02:42:33.630Z,96600.50
2023-04-02T02:47:39.197Z,96702.84
2023-04-02T02:52:48.358Z,96665.13
2023-04-02T02:58:01.128Z,96422.00
2023-04-02T03:03:09.231Z,96751.34
2023-04-02T03:08:22.990Z,96669.03
2023-04-02T03:13:33.603Z,96701.00
2023-04-02T03:18:46.068Z,96747.28
2023-04-02T03:23:54.859Z,96709.22
2023-04-02T03:29:07.329Z,96717.00
2023-04-02T03:34:24.621Z,96708.97
2023-04-02T03:39:50.505Z,96765.41
2023-04-02T03:45:21.250Z,96779.78
2023-04-02T03:50:24.992Z,96781.06
2023-04-02T03:55:31.501Z,96771.84
2023-04-02T04:00:52.713Z,96784.88
2023-04-02T04:06:15.413Z,96767.38
2023-04-02T04:11:23.988Z,96802.22
2023-04-02T04:17:14.767Z,96708.72
2023-04-02T04:22:20.638Z,96764.94
2023-04-02T04:27:35.770Z,96772.69
2023-04-02T04:33:06.107Z,96809.84
2023-04-02T04:38:22.890Z,96827.13
2023-04-02T04:43:45.262Z,96755.72
2023-04-02T04:48:57.135Z,96809.66
2023-04-02T04:54:02.102Z,96820.19
2023-04-02T04:59:16.237Z,96847.16
2023-04-02T05:04:37.050Z,96839.88
2023-04-02T05:09:44.265Z,96811.06
2023-04-02T05:15:15.276Z,96829.66
2023-04-02T05:20:24.144Z,96825.03
2023-04-02T05:25:33.031Z,96827.50
2023-04-02T05:30:53.756Z,96826.91
2023-04-02T05:35:59.194Z,96617.31
2023-04-02T05:41:04.117Z,96831.69
2023-04-02T05:46:25.158Z,96682.53
2023-04-02T05:51:47.301Z,96853.38
2023-04-02T05:56:56.748Z,96736.47
2023-04-02T06:02:17.629Z,96807.03
2023-04-02T06:07:26.670Z,96602.25
2023-04-02T06:12:59.105Z,96826.25
2023-04-02T06:18:20.101Z,96880.72
2023-04-02T06:23:43.230Z,96883.19
2023-04-02T06:29:09.497Z,96889.75
2023-04-02T06:34:17.240Z,96896.91
2023-04-02T06:39:23.874Z,96818.50
2023-04-02T06:44:30.352Z,96688.47
2023-04-02T06:49:47.921Z,96701.34
2023-04-02T06:54:50.897Z,96720.88
2023-04-02T07:00:00.824Z,96890.69
2023-04-02T07:05:06.654Z,96882.16
2023-04-02T07:10:10.288Z,96829.72
2023-04-02T07:15:17.503Z,96921.69
2023-04-02T07:20:36.377Z,96951.03
2023-04-02T07:25:39.252Z,96705.56
2023-04-02T07:30:42.220Z,96919.91
2023-04-02T07:35:45.957Z,96946.91
2023-04-02T07:40:48.858Z,96781.81
2023-04-02T07:46:01.975Z,96839.97
2023-04-02T07:51:05.238Z,96915.81
2023-04-02T07:56:09.526Z,96963.00
2023-04-02T08:01:27.611Z,96946.25
2023-04-02T08:06:31.100Z,96972.97
2023-04-02T08:11:33.908Z,96905.56
2023-04-02T08:16:53.229Z,96969.97
2023-04-02T08:22:05.832Z,96727.19
2023-04-02T08:27:08.950Z,96867.75
2023-04-02T08:32:16.518Z,96832.19
2023-04-02T08:37:19.545Z,96978.97
2023-04-02T08:42:53.035Z,96968.31
2023-04-02T08:47:58.594Z,96938.06
2023-04-02T08:53:04.704Z,96881.78
2023-04-02T08:58:25.766Z,96979.94
2023-04-02T09:03:43.706Z,96989.50
2023-04-02T09:08:49.690Z,96907.97
2023-04-02T09:13:58.451Z,96991.41
2023-04-02T09:19:02.615Z,96953.06
2023-04-02T09:24:06.034Z,96913.13
2023-04-02T09:29:45.588Z,96996.53
2023-04-02T09:34:49.003Z,96735.38
2023-04-02T09:39:52.612Z,96935.41
2023-04-02T09:45:23.029Z,96936.13
2023-04-02T09:50:35.786Z,96980.25
2023-04-02T09:55:38.630Z,96966.59
2023-04-02T10:00:50.726Z,96790.03
2023-04-02T10:06:14.927Z,96955.66
2023-04-02T11:56:48.331Z,96905.72
2023-04-02T12:01:58.454Z,96976.56
2023-04-02T12:07:20.782Z,96962.00
2023-04-02T12:12:36.754Z,96962.06
2023-04-02T12:17:41.496Z,96957.09
2023-04-02T12:22:58.494Z,96960.88
2023-04-02T12:28:10.410Z,96954.38
2023-04-02T12:33:34.812Z,96954.06
2023-04-02T12:38:46.220Z,96759.53
2023-04-02T12:43:57.251Z,96893.16
2023-04-02T12:49:08.563Z,96902.00
2023-04-02T12:54:18.324Z,96820.84
2023-04-02T12:59:37.009Z,96866.63
2023-04-02T13:04:48.575Z,96936.75
2023-04-02T13:10:23.895Z,96937.84
2023-04-02T13:15:38.009Z,96734.88
2023-04-02T13:20:58.175Z,96868.31
2023-04-02T13:26:04.117Z,96763.78
2023-04-02T13:31:20.226Z,96955.34
2023-04-02T13:36:24.579Z,96843.00
2023-04-02T13:41:30.298Z,96957.22
2023-04-02T13:46:35.358Z,96782.16
2023-04-02T13:51:51.765Z,96973.53
2023-04-02T13:56:57.060Z,96949.34
2023-04-02T14:02:06.646Z,96943.81
2023-04-02T14:07:35.616Z,96966.28
2023-04-02T14:13:19.775Z,96968.94
2023-04-02T14:18:42.112Z,96959.25
2023-04-02T14:23:59.966Z,96961.50
2023-04-02T14:29:28.222Z,96898.38
2023-04-02T14:34:58.738Z,96895.53
2023-04-02T14:40:35.429Z,96955.19
2023-04-02T14:45:56.120Z,96871.13
2023-04-02T14:51:31.929Z,96958.84
2023-04-02T14:56:40.629Z,96959.84
2023-04-02T15:02:04.647Z,96680.41
2023-04-02T15:07:17.288Z,96898.28
2023-04-02T15:12:33.648Z,96973.56
2023-04-02T15:17:37.074Z,96919.63
2023-04-02T15:22:56.930Z,96710.66
2023-04-02T15:28:17.006Z,96983.25
2023-04-02T15:33:41.482Z,96987.16
2023-04-02T15:38:54.158Z,96847.81
2023-04-02T15:44:11.888Z,96986.69
2023-04-02T15:49:43.666Z,96991.19
2023-04-02T15:54:56.846Z,97027.59
2023-04-02T16:00:16.038Z,96928.88
2023-04-02T16:05:39.635Z,96914.50
2023-04-02T16:10:43.387Z,97051.13
2023-04-02T16:15:56.279Z,96898.56
2023-04-02T16:21:04.059Z,97027.31
2023-04-02T16:26:47.647Z,97037.50
2023-04-02T16:32:04.758Z,96948.75
2023-04-02T16:37:49.040Z,97075.13
2023-04-02T16:43:12.252Z,97060.56
2023-04-02T16:48:49.350Z,97063.25
2023-04-02T16:54:01.941Z,97023.22
2023-04-02T16:59:39.668Z,97151.44
2023-04-02T17:04:59.913Z,97152.47
2023-04-02T17:10:30.808Z,97110.88
2023-04-02T17:15:41.597Z,97087.97
2023-04-02T17:20:44.774Z,97118.34
2023-04-02T17:54:32.072Z,97144.88
2023-04-02T17:59:59.419Z,97016.91
2023-04-02T18:05:11.335Z,97163.34
2023-04-02T18:10:46.791Z,97170.94
2023-04-02T18:16:17.605Z,97183.53
2023-04-02T18:21:26.515Z,97192.25
2023-04-02T18:27:07.593Z,97209.88
2023-04-02T18:32:37.135Z,97215.41
2023-04-02T18:38:10.690Z,97220.25
2023-04-02T18:43:29.926Z,97227.28
2023-04-02T18:49:08.661Z,97207.28
2023-04-02T18:54:24.631Z,97233.16
2023-04-02T18:59:47.419Z,97192.28
2023-04-02T19:05:01.702Z,97194.28
2023-04-02T19:10:30.468Z,97187.75
2023-04-02T19:15:54.852Z,97226.97
2023-04-02T19:21:29.871Z,97255.75
2023-04-02T19:27:04.501Z,97097.78
2023-04-02T19:32:24.026Z,97226.41
2023-04-02T19:37:40.450Z,97304.66
2023-04-02T19:42:44.460Z,97306.94
2023-04-02T19:47:47.181Z,97205.56
2023-04-02T19:52:49.748Z,97210.03
2023-04-02T19:58:00.991Z,97284.56
2023-04-02T20:03:11.467Z,97220.31
2023-04-02T20:08:14.299Z,97282.00
2023-04-02T20:13:17.376Z,97094.09
2023-04-02T20:18:21.133Z,97031.50
2023-04-02T20:23:27.947Z,97271.25
2023-04-02T20:28:32.040Z,97271.13
2023-04-02T20:33:35.153Z,97232.81
2023-04-02T20:38:38.553Z,97015.06
2023-04-02T20:43:43.568Z,97007.72
2023-04-02T20:48:47.748Z,97260.47
2023-04-02T20:53:52.032Z,97154.03
2023-04-02T20:58:54.634Z,97306.69
2023-04-02T21:03:59.847Z,97141.03
2023-04-02T21:09:17.149Z,97235.16
2023-04-02T21:14:32.829Z,97187.00
2023-04-02T21:19:36.824Z,97309.16
2023-04-02T21:24:39.467Z,97312.00
2023-04-02T21:29:42.270Z,97231.72
2023-04-02T21:34:45.237Z,97306.09
2023-04-02T21:39:48.084Z,97320.22
2023-04-02T21:44:51.129Z,97277.63
2023-04-02T21:49:54.228Z,97111.38
2023-04-02T21:54:57.424Z,97222.09
2023-04-02T22:00:01.635Z,97133.34
2023-04-02T22:05:04.929Z,97284.25
2023-04-02T22:10:09.028Z,97119.63
2023-04-02T22:15:12.508Z,97279.19
2023-04-02T22:20:15.408Z,97180.38
2023-04-02T22:25:18.323Z,97246.69
2023-04-02T22:30:21.113Z,97300.13
2023-04-02T22:35:23.714Z,97334.59
2023-04-02T22:40:26.805Z,97352.00
2023-04-02T22:45:29.848Z,97267.59
2023-04-02T22:50:42.469Z,97154.78
2023-04-02T22:55:45.233Z,97132.53
2023-04-02T23:00:48.844Z,97324.44
2023-04-02T23:06:03.122Z,97357.72
2023-04-02T23:11:11.035Z,97385.81
2023-04-02T23:16:15.130Z,97385.59
2023-04-02T23:21:19.304Z,97112.50
2023-04-02T23:26:25.658Z,97387.13
2023-04-02T23:31:28.587Z,97249.50
2023-04-02T23:36:33.584Z,97382.22
2023-04-02T23:41:38.916Z,97346.81
2023-04-02T23:46:42.418Z,97343.22
2023-04-02T23:51:45.354Z,97365.28
2023-04-02T23:56:48.596Z,97381.81
